Time;durP1;ratioP1;P1;durP2;ratioP2;P2;SDS_P1;SDS_P2;PMS_P1;PMS_P2;Temp;Humidity;BMP_temperature;BMP_pressure;BME280_temperature;BME280_humidity;BME280_pressure;Samples;Min_cycle;Max_cycle;Signal;HPM_P1;HPM_P2
2022/01/19 00:00:49;;;;;;;18.88;9.43;;;6.10;99.90;;;;;;4148158;28;20370;-63
2022/01/19 00:02:50;;;;;;;19.13;9.68;;;6.10;99.90;;;;;;4147297;28;20057;-63
2022/01/19 00:04:51;;;;;;;17.90;10.07;;;6.00;99.90;;;;;;4146143;28;20034;-63
2022/01/19 00:06:51;;;;;;;19.73;10.25;;;6.00;99.90;;;;;;4145749;28;20084;-63
2022/01/19 00:08:52;;;;;;;21.58;9.70;;;6.00;99.90;;;;;;4147512;28;20055;-63
2022/01/19 00:10:53;;;;;;;18.48;9.43;;;5.90;99.90;;;;;;4146951;28;20532;-63
2022/01/19 00:12:55;;;;;;;21.23;10.57;;;5.90;99.90;;;;;;4146094;28;20125;-63
2022/01/19 00:14:55;;;;;;;16.23;9.40;;;5.70;99.90;;;;;;4142307;28;20030;-63
2022/01/19 00:16:56;;;;;;;16.65;8.90;;;5.60;99.90;;;;;;4146871;28;20053;-63
2022/01/19 00:18:57;;;;;;;18.08;8.85;;;5.50;99.90;;;;;;4144095;28;20048;-64
2022/01/19 00:20:57;;;;;;;15.50;8.15;;;5.40;99.90;;;;;;4145374;28;20129;-64
2022/01/19 00:22:59;;;;;;;14.70;7.68;;;5.40;99.90;;;;;;4147844;28;20556;-64
2022/01/19 00:25:00;;;;;;;12.20;7.25;;;5.40;99.90;;;;;;4145473;28;20069;-64
2022/01/19 00:27:00;;;;;;;15.15;7.05;;;5.40;99.90;;;;;;4146245;28;20033;-64
2022/01/19 00:29:01;;;;;;;13.88;7.35;;;5.30;99.90;;;;;;4148079;28;20473;-63
2022/01/19 00:31:02;;;;;;;13.02;7.10;;;5.20;99.90;;;;;;4146224;28;20176;-63
2022/01/19 00:33:02;;;;;;;15.65;7.32;;;5.20;99.90;;;;;;4147388;28;20068;-63
2022/01/19 00:35:06;;;;;;;12.57;6.93;;;5.20;99.90;;;;;;4145121;28;20041;-65
2022/01/19 00:37:06;;;;;;;11.98;6.43;;;5.20;99.90;;;;;;4145074;28;20134;-63
2022/01/19 00:39:07;;;;;;;11.57;5.85;;;5.30;99.90;;;;;;4146028;28;20041;-63
2022/01/19 00:41:08;;;;;;;10.55;6.18;;;5.30;99.90;;;;;;4145888;28;20029;-63
2022/01/19 00:43:08;;;;;;;12.70;6.97;;;5.30;99.90;;;;;;4146015;28;20050;-63
2022/01/19 00:45:11;;;;;;;12.18;7.13;;;5.40;99.90;;;;;;4145418;28;20041;-65
2022/01/19 00:47:13;;;;;;;11.38;6.32;;;5.40;99.90;;;;;;4146517;28;20042;-63
2022/01/19 00:49:13;;;;;;;10.13;6.13;;;5.50;99.90;;;;;;4146593;28;20053;-63
2022/01/19 00:51:14;;;;;;;11.50;6.88;;;5.50;99.90;;;;;;4145971;28;20030;-63
2022/01/19 00:53:15;;;;;;;11.38;6.15;;;5.50;99.90;;;;;;4144804;28;20397;-63
2022/01/19 00:55:15;;;;;;;12.15;6.78;;;5.60;99.90;;;;;;4144612;28;20038;-63
2022/01/19 00:57:16;;;;;;;10.68;5.97;;;5.60;99.90;;;;;;4148193;28;20038;-63
2022/01/19 00:59:17;;;;;;;13.85;6.50;;;5.60;99.90;;;;;;4144525;28;20038;-64
2022/01/19 01:01:17;;;;;;;11.95;6.85;;;5.60;99.90;;;;;;4145445;28;20034;-64
2022/01/19 01:03:18;;;;;;;13.80;6.30;;;5.60;99.90;;;;;;4146363;28;20480;-64
2022/01/19 01:05:19;;;;;;;10.52;6.07;;;5.60;99.90;;;;;;4145397;28;20034;-63
2022/01/19 01:07:19;;;;;;;13.32;6.32;;;5.60;99.90;;;;;;4146870;28;20080;-64
2022/01/19 01:09:20;;;;;;;9.48;6.28;;;5.60;99.90;;;;;;4145704;28;20107;-63
2022/01/19 01:11:28;;;;;;;10.85;6.03;;;5.60;99.90;;;;;;4143398;28;20504;-63
2022/01/19 01:15:24;;;;;;;11.13;6.22;;;5.60;99.90;;;;;;4146085;28;20049;-63
2022/01/19 01:16:17;;;;;;;9.70;6.10;;;5.60;99.90;;;;;;4143438;28;20041;-63
2022/01/19 01:18:19;;;;;;;11.80;6.65;;;5.60;99.90;;;;;;4145575;28;20456;-64
2022/01/19 01:20:20;;;;;;;10.88;6.45;;;5.60;99.90;;;;;;4145181;28;20110;-64
2022/01/19 01:22:21;;;;;;;11.20;6.47;;;5.60;99.90;;;;;;4146262;28;20417;-63
2022/01/19 01:24:21;;;;;;;12.15;7.10;;;5.60;99.90;;;;;;4145135;28;20053;-64
2022/01/19 01:26:22;;;;;;;11.18;6.03;;;5.60;99.90;;;;;;4144109;28;20037;-63
2022/01/19 01:28:23;;;;;;;9.90;6.15;;;5.60;99.90;;;;;;4147076;28;20037;-63
2022/01/19 01:30:23;;;;;;;9.85;5.28;;;5.60;99.90;;;;;;4146995;28;20432;-63
2022/01/19 01:32:24;;;;;;;11.40;6.05;;;5.50;99.90;;;;;;4145128;28;20045;-63
2022/01/19 01:34:25;;;;;;;14.10;6.07;;;5.50;99.90;;;;;;4145680;28;20045;-63
2022/01/19 01:36:25;;;;;;;11.90;6.47;;;5.50;99.90;;;;;;4145524;28;20475;-63
2022/01/19 01:38:26;;;;;;;12.02;6.53;;;5.50;99.90;;;;;;4145198;28;20061;-63
2022/01/19 01:40:27;;;;;;;14.77;6.95;;;5.40;99.90;;;;;;4146735;28;20505;-63
2022/01/19 01:42:28;;;;;;;11.38;6.63;;;5.50;99.90;;;;;;4146224;28;20401;-63
2022/01/19 01:44:38;;;;;;;10.38;6.53;;;5.40;99.90;;;;;;4143535;28;20054;-63
2022/01/19 01:46:52;;;;;;;11.07;6.47;;;5.40;99.90;;;;;;4144506;28;20037;-63
2022/01/19 01:48:53;;;;;;;10.80;6.10;;;5.40;99.90;;;;;;4145002;28;20077;-63
2022/01/19 01:53:28;;;;;;;10.20;5.80;;;5.40;99.90;;;;;;4144259;28;20034;-63
2022/01/19 01:55:29;;;;;;;10.90;6.15;;;5.30;99.90;;;;;;4144495;28;20045;-63
2022/01/19 01:57:29;;;;;;;13.02;6.60;;;5.30;99.90;;;;;;4145583;28;20042;-63
2022/01/19 01:59:33;;;;;;;14.68;7.03;;;5.30;99.90;;;;;;4146581;28;20034;-63
2022/01/19 02:01:34;;;;;;;11.20;6.20;;;5.30;99.90;;;;;;4144788;28;20029;-63
2022/01/19 02:03:39;;;;;;;9.93;6.22;;;5.30;99.90;;;;;;4146572;28;20040;-63
2022/01/19 02:06:05;;;;;;;10.40;6.20;;;5.30;99.90;;;;;;4143655;28;20042;-63
2022/01/19 02:08:09;;;;;;;11.27;5.78;;;5.20;99.90;;;;;;4144355;28;20057;-63
2022/01/19 02:10:28;;;;;;;12.95;6.95;;;5.10;99.90;;;;;;4143632;28;20130;-64
2022/01/19 02:22:04;;;;;;;;;;;3.80;99.90;;;;;;4145583;28;20041;-64
2022/01/19 02:24:10;;;;;;;12.52;6.90;;;3.70;99.90;;;;;;4143861;28;19964;-64
2022/01/19 02:26:17;;;;;;;12.25;6.65;;;3.80;99.90;;;;;;4144661;28;20042;-63
2022/01/19 02:29:14;;;;;;;10.43;6.40;;;3.90;99.90;;;;;;4144899;28;20045;-65
2022/01/19 02:41:43;;;;;;;13.68;6.70;;;3.70;99.90;;;;;;4159991;28;20077;-63
2022/01/19 02:43:49;;;;;;;10.60;6.15;;;3.80;99.90;;;;;;4161330;28;20485;-63
2022/01/19 02:50:31;;;;;;;11.07;6.40;;;4.00;99.90;;;;;;4159512;28;20061;-63
2022/01/19 02:52:31;;;;;;;11.20;5.72;;;4.20;99.90;;;;;;4161251;28;20048;-63
2022/01/19 02:54:33;;;;;;;11.48;5.88;;;4.20;99.90;;;;;;4160542;28;20038;-63
2022/01/19 02:56:37;;;;;;;9.40;5.93;;;4.30;99.90;;;;;;4155468;28;20038;-63
2022/01/19 02:58:55;;;;;;;10.25;6.10;;;4.40;99.90;;;;;;4145029;28;20408;-63
2022/01/19 03:10:13;;;;;;;9.32;6.03;;;4.60;99.90;;;;;;4157051;28;20431;-63
2022/01/19 03:12:14;;;;;;;10.77;6.28;;;4.70;99.90;;;;;;4159943;28;20034;-63
2022/01/19 03:14:17;;;;;;;11.00;6.25;;;4.70;99.90;;;;;;4161041;28;20084;-63
2022/01/19 03:16:18;;;;;;;;;;;4.70;99.90;;;;;;4162374;28;20041;-66
2022/01/19 03:18:19;;;;;;;9.98;5.60;;;4.70;99.90;;;;;;4160038;28;19992;-63
2022/01/19 03:20:20;;;;;;;8.00;5.30;;;4.80;99.90;;;;;;4159404;28;20115;-64
2022/01/19 03:22:26;;;;;;;9.55;6.25;;;4.80;99.90;;;;;;4162200;28;20120;-63
2022/01/19 03:24:27;;;;;;;9.60;5.90;;;4.80;99.90;;;;;;4160014;28;20416;-63
2022/01/19 03:26:27;;;;;;;9.02;5.43;;;4.80;99.90;;;;;;4159720;28;20044;-63
2022/01/19 03:28:28;;;;;;;8.27;5.47;;;4.80;99.90;;;;;;4160499;28;20504;-63
2022/01/19 03:30:29;;;;;;;8.27;5.22;;;4.80;99.90;;;;;;4160870;28;20392;-63
2022/01/19 03:32:29;;;;;;;8.23;5.32;;;4.90;99.90;;;;;;4160231;28;20036;-63
2022/01/19 03:34:30;;;;;;;7.20;4.65;;;4.90;99.90;;;;;;4160071;28;20033;-63
2022/01/19 03:36:30;;;;;;;7.10;5.03;;;5.00;99.90;;;;;;4160043;28;20033;-63
2022/01/19 03:38:31;;;;;;;9.57;5.68;;;5.00;99.90;;;;;;4160264;28;20508;-63
2022/01/19 03:40:32;;;;;;;9.25;5.38;;;5.00;99.90;;;;;;4160125;28;20393;-63
2022/01/19 03:42:33;;;;;;;9.20;5.35;;;5.10;99.90;;;;;;4160187;28;20040;-63
2022/01/19 03:44:34;;;;;;;8.05;5.53;;;5.10;99.90;;;;;;4160924;28;20470;-63
2022/01/19 03:46:43;;;;;;;8.40;5.63;;;5.10;99.90;;;;;;4159445;28;20586;-63
2022/01/19 03:48:54;;;;;;;6.88;4.65;;;5.10;99.90;;;;;;4159459;28;20053;-63
2022/01/19 03:50:54;;;;;;;7.22;5.15;;;5.10;99.90;;;;;;4148581;28;20053;-64
2022/01/19 03:52:55;;;;;;;7.95;5.28;;;5.20;99.90;;;;;;4161199;28;20034;-63
2022/01/19 03:54:55;;;;;;;9.88;5.35;;;5.20;99.90;;;;;;4161336;28;20473;-63
2022/01/19 03:56:56;;;;;;;7.03;5.13;;;5.20;99.90;;;;;;4161348;28;20045;-63
2022/01/19 03:58:57;;;;;;;8.05;4.50;;;5.20;99.90;;;;;;4163097;28;20052;-63
2022/01/19 04:00:59;;;;;;;7.15;5.10;;;5.20;99.90;;;;;;4163221;28;20045;-63
2022/01/19 04:03:00;;;;;;;8.85;5.60;;;5.20;99.90;;;;;;4163576;28;20064;-63
2022/01/19 04:05:07;;;;;;;10.40;6.07;;;5.20;99.90;;;;;;4160453;28;20042;-64
2022/01/19 04:07:09;;;;;;;10.18;6.35;;;5.20;99.90;;;;;;4161935;28;20092;-63
2022/01/19 04:09:09;;;;;;;9.98;6.47;;;5.20;99.90;;;;;;4163597;28;20057;-64
2022/01/19 04:11:10;;;;;;;11.10;6.53;;;5.20;99.90;;;;;;4163200;28;20048;-63
2022/01/19 04:13:23;;;;;;;9.98;6.35;;;5.10;99.90;;;;;;4163553;28;20489;-63
2022/01/19 04:15:24;;;;;;;9.90;7.28;;;5.20;99.90;;;;;;4145245;28;20046;-63
2022/01/19 04:17:25;;;;;;;10.25;7.10;;;5.20;99.90;;;;;;4164321;28;20491;-62
2022/01/19 04:19:47;;;;;;;10.57;7.38;;;5.20;99.90;;;;;;4163777;28;20105;-63
2022/01/19 04:21:49;;;;;;;12.77;8.15;;;5.20;99.90;;;;;;4161410;28;20045;-63
2022/01/19 04:23:50;;;;;;;15.57;9.35;;;5.10;99.90;;;;;;4163010;28;20109;-63
2022/01/19 04:25:50;;;;;;;15.32;9.63;;;5.00;99.90;;;;;;4163485;28;20447;-63
2022/01/19 04:27:51;;;;;;;14.70;9.75;;;4.90;99.90;;;;;;4162328;28;20033;-63
2022/01/19 04:31:58;;;;;;;18.25;10.73;;;4.90;99.90;;;;;;4162197;28;20061;-63
2022/01/19 04:34:03;;;;;;;19.77;11.57;;;4.80;99.90;;;;;;4162656;28;20425;-63
2022/01/19 04:36:25;;;;;;;20.75;11.70;;;4.80;99.90;;;;;;4159994;28;20228;-64
2022/01/19 04:48:21;;;;;;;22.55;13.23;;;4.60;99.90;;;;;;4149572;28;20045;-63
2022/01/19 05:04:07;;;;;;;23.80;12.93;;;4.60;99.90;;;;;;4148091;28;20076;-64
2022/01/19 05:06:13;;;;;;;24.17;13.30;;;4.60;99.90;;;;;;4161054;28;20037;-63
2022/01/19 05:08:48;;;;;;;23.63;13.18;;;4.60;99.90;;;;;;4145930;28;20732;-63
2022/01/19 05:15:01;;;;;;;23.73;13.75;;;4.70;99.90;;;;;;4162326;28;20132;-63
2022/01/19 05:17:02;;;;;;;25.65;14.40;;;4.70;99.90;;;;;;4159082;28;20120;-63
2022/01/19 05:19:03;;;;;;;21.10;13.00;;;4.70;99.90;;;;;;4161700;28;20037;-64
2022/01/19 05:21:04;;;;;;;22.02;12.35;;;4.70;99.90;;;;;;4160640;28;20436;-63
2022/01/19 05:23:04;;;;;;;19.10;11.95;;;4.70;99.90;;;;;;4161733;28;20036;-63
2022/01/19 05:25:05;;;;;;;23.55;12.98;;;4.80;99.90;;;;;;4163405;28;20450;-65
2022/01/19 05:27:06;;;;;;;20.95;12.05;;;4.80;99.90;;;;;;4162287;28;20041;-63
2022/01/19 05:29:06;;;;;;;24.70;13.23;;;4.80;99.90;;;;;;4161489;28;20399;-63
2022/01/19 05:31:07;;;;;;;21.90;11.80;;;4.70;99.90;;;;;;4161149;28;20025;-63
2022/01/19 05:33:08;;;;;;;21.83;12.57;;;4.80;99.90;;;;;;4159840;28;20447;-63
2022/01/19 05:35:09;;;;;;;20.23;11.82;;;4.80;99.90;;;;;;4162715;28;20040;-66
2022/01/19 05:37:09;;;;;;;23.48;12.20;;;4.80;99.90;;;;;;4162330;28;20041;-63
2022/01/19 05:39:10;;;;;;;20.75;11.88;;;4.80;99.90;;;;;;4161480;28;20041;-63
2022/01/19 05:41:11;;;;;;;21.33;11.43;;;4.80;99.90;;;;;;4158020;28;20140;-63
2022/01/19 05:43:11;;;;;;;21.70;13.02;;;4.80;99.90;;;;;;4160314;28;20045;-63
2022/01/19 05:45:12;;;;;;;18.25;12.00;;;4.90;99.90;;;;;;4161948;28;20034;-64
2022/01/19 05:47:14;;;;;;;18.13;11.25;;;4.90;99.90;;;;;;4160938;28;20034;-63
2022/01/19 05:49:14;;;;;;;19.58;11.10;;;4.90;99.90;;;;;;4161344;28;20125;-63
2022/01/19 05:51:15;;;;;;;19.90;11.65;;;4.90;99.90;;;;;;4161804;28;20056;-64
2022/01/19 05:53:16;;;;;;;20.15;11.30;;;5.00;99.90;;;;;;4161236;28;20041;-63
2022/01/19 05:55:17;;;;;;;16.27;10.65;;;5.00;99.90;;;;;;4161324;28;20037;-63
2022/01/19 05:57:17;;;;;;;20.25;11.80;;;5.00;99.90;;;;;;4159019;28;20042;-63
2022/01/19 05:59:18;;;;;;;17.65;11.18;;;5.00;99.90;;;;;;4156862;28;20033;-63
2022/01/19 06:01:19;;;;;;;18.52;11.60;;;5.00;99.90;;;;;;4157676;28;20040;-63
2022/01/19 06:03:19;;;;;;;20.13;11.95;;;5.10;99.90;;;;;;4157576;28;20120;-63
2022/01/19 06:05:20;;;;;;;19.52;11.52;;;5.10;99.90;;;;;;4159228;28;20045;-65
2022/01/19 06:07:28;;;;;;;20.15;11.18;;;5.00;99.90;;;;;;4157659;28;20068;-64
2022/01/19 06:09:47;;;;;;;20.77;11.75;;;5.00;99.90;;;;;;4159403;28;20056;-63
2022/01/19 06:11:48;;;;;;;20.00;11.80;;;5.00;99.90;;;;;;4156465;28;20468;-63
2022/01/19 06:13:49;;;;;;;20.45;11.88;;;5.10;99.90;;;;;;4158509;28;20045;-63
2022/01/19 06:15:50;;;;;;;17.65;11.20;;;5.10;99.90;;;;;;4158492;28;20469;-63
2022/01/19 06:17:51;;;;;;;21.02;11.80;;;5.10;99.90;;;;;;4159266;28;20489;-64
2022/01/19 06:19:51;;;;;;;19.83;12.80;;;5.10;99.90;;;;;;4158766;28;20045;-63
2022/01/19 06:21:52;;;;;;;21.00;12.13;;;5.10;99.90;;;;;;4155459;28;20041;-64
2022/01/19 06:23:53;;;;;;;17.92;11.57;;;5.10;99.90;;;;;;4157217;28;20107;-64
2022/01/19 06:25:53;;;;;;;17.35;11.43;;;5.10;99.90;;;;;;4156557;28;20117;-64
2022/01/19 06:27:54;;;;;;;16.48;10.93;;;5.10;99.90;;;;;;4158147;28;20397;-63
2022/01/19 06:29:55;;;;;;;22.98;12.85;;;5.10;99.90;;;;;;4159651;28;20132;-62
2022/01/19 06:31:55;;;;;;;21.92;11.45;;;5.10;99.90;;;;;;4155946;28;20051;-63
2022/01/19 06:33:56;;;;;;;21.65;13.10;;;5.20;99.90;;;;;;4159484;28;20461;-63
2022/01/19 06:35:56;;;;;;;18.95;11.45;;;5.20;99.90;;;;;;4158039;28;20094;-63
2022/01/19 06:37:57;;;;;;;16.70;11.30;;;5.20;99.90;;;;;;4157284;28;20095;-63
2022/01/19 06:39:58;;;;;;;16.00;10.48;;;5.20;99.90;;;;;;4157186;28;20033;-63
2022/01/19 06:41:58;;;;;;;17.17;11.68;;;5.20;99.90;;;;;;4155243;28;20037;-63
2022/01/19 06:43:59;;;;;;;17.45;10.73;;;5.20;99.90;;;;;;4157783;28;20049;-63
2022/01/19 06:46:00;;;;;;;16.38;11.35;;;5.20;99.90;;;;;;4158166;28;20049;-63
2022/01/19 06:48:01;;;;;;;19.40;12.13;;;5.20;99.90;;;;;;4157119;28;20049;-63
2022/01/19 06:50:04;;;;;;;20.20;11.70;;;5.20;99.90;;;;;;4158289;28;20057;-63
2022/01/19 06:52:05;;;;;;;16.80;10.85;;;5.20;99.90;;;;;;4155917;28;20048;-63
2022/01/19 06:54:06;;;;;;;15.75;10.85;;;5.20;99.90;;;;;;4157894;28;20077;-62
2022/01/19 06:56:06;;;;;;;16.92;10.60;;;5.20;99.90;;;;;;4156749;28;20071;-63
2022/01/19 06:58:07;;;;;;;18.73;11.65;;;5.20;99.90;;;;;;4159868;28;20053;-63
2022/01/19 07:00:09;;;;;;;15.25;10.43;;;5.20;99.90;;;;;;4155323;28;20045;-64
2022/01/19 07:02:10;;;;;;;19.00;11.90;;;5.20;99.90;;;;;;4158416;28;20037;-63
2022/01/19 07:04:14;;;;;;;18.42;10.75;;;5.20;99.90;;;;;;4158799;28;20068;-62
2022/01/19 07:06:15;;;;;;;16.70;10.52;;;5.30;99.90;;;;;;4158076;28;20045;-65
2022/01/19 07:08:15;;;;;;;16.30;10.35;;;5.20;99.90;;;;;;4155164;28;20103;-63
2022/01/19 07:10:16;;;;;;;19.08;11.55;;;5.30;99.90;;;;;;4155623;28;20482;-63
2022/01/19 07:12:16;;;;;;;15.00;10.18;;;5.20;99.90;;;;;;4157853;28;20057;-63
2022/01/19 07:14:17;;;;;;;17.00;11.18;;;5.20;99.90;;;;;;4157946;28;20045;-63
2022/01/19 07:16:18;;;;;;;14.40;10.32;;;5.30;99.90;;;;;;4157658;28;20049;-62
2022/01/19 07:18:18;;;;;;;15.23;9.80;;;5.20;99.90;;;;;;4158198;28;20046;-63
2022/01/19 07:20:19;;;;;;;15.35;10.32;;;5.20;99.90;;;;;;4156035;28;20033;-63
2022/01/19 07:22:20;;;;;;;16.75;10.88;;;5.30;99.90;;;;;;4156920;28;20036;-64
2022/01/19 07:24:20;;;;;;;15.80;11.07;;;5.30;99.90;;;;;;4158711;28;20449;-65
2022/01/19 07:26:21;;;;;;;15.93;10.52;;;5.30;99.90;;;;;;4156946;28;20048;-65
2022/01/19 07:28:22;;;;;;;14.98;10.73;;;5.30;99.90;;;;;;4158345;28;20469;-64
2022/01/19 07:30:24;;;;;;;16.00;11.05;;;5.20;99.90;;;;;;4156765;28;20041;-64
2022/01/19 07:32:29;;;;;;;19.45;11.88;;;5.20;99.90;;;;;;4159599;28;20056;-64
2022/01/19 07:34:30;;;;;;;16.60;10.65;;;5.30;99.90;;;;;;4160367;28;20361;-63
2022/01/19 07:36:31;;;;;;;16.70;11.38;;;5.30;99.90;;;;;;4159302;28;20040;-64
2022/01/19 07:38:31;;;;;;;19.45;11.98;;;5.20;99.90;;;;;;4159545;28;20037;-63
2022/01/19 07:40:32;;;;;;;22.30;12.32;;;5.20;99.90;;;;;;4154629;28;20713;-64
2022/01/19 07:42:32;;;;;;;16.83;11.00;;;5.20;99.90;;;;;;4159132;28;20041;-64
2022/01/19 07:44:33;;;;;;;17.85;11.82;;;5.20;99.90;;;;;;4161652;28;20098;-63
2022/01/19 07:46:34;;;;;;;17.85;10.85;;;5.20;99.90;;;;;;4158206;28;20029;-63
2022/01/19 07:48:34;;;;;;;16.92;10.98;;;5.30;99.90;;;;;;4157466;28;20061;-63
2022/01/19 07:50:35;;;;;;;16.08;11.40;;;5.30;99.90;;;;;;4159205;28;20033;-63
2022/01/19 07:52:36;;;;;;;16.90;11.35;;;5.20;99.90;;;;;;4160751;28;20064;-63
2022/01/19 07:54:37;;;;;;;16.58;11.73;;;5.30;99.90;;;;;;4160852;28;20170;-63
2022/01/19 07:56:38;;;;;;;16.27;10.88;;;5.30;99.90;;;;;;4161909;28;20049;-63
2022/01/19 07:58:38;;;;;;;17.58;12.02;;;5.30;99.90;;;;;;4161341;28;20068;-63
2022/01/19 08:00:40;;;;;;;14.95;10.98;;;5.30;99.90;;;;;;4158385;28;20567;-64
2022/01/19 08:02:40;;;;;;;17.50;12.50;;;5.30;99.90;;;;;;4159766;28;20039;-63
2022/01/19 08:04:41;;;;;;;16.70;11.25;;;5.20;99.90;;;;;;4159832;28;20037;-63
2022/01/19 08:06:42;;;;;;;17.92;11.85;;;5.20;99.90;;;;;;4160384;28;20045;-63
2022/01/19 08:08:43;;;;;;;16.95;11.38;;;5.20;99.90;;;;;;4161353;28;20058;-63
2022/01/19 08:10:45;;;;;;;17.63;12.10;;;5.20;99.90;;;;;;4159081;28;20045;-65
2022/01/19 08:12:46;;;;;;;16.73;11.27;;;5.20;99.90;;;;;;4157521;28;20507;-64
2022/01/19 08:14:48;;;;;;;16.88;12.00;;;5.20;99.90;;;;;;4159178;28;20034;-64
2022/01/19 08:16:49;;;;;;;;;;;5.20;99.90;;;;;;4159194;28;20107;-64
2022/01/19 08:18:50;;;;;;;16.27;11.55;;;5.20;99.90;;;;;;4160273;28;19955;-64
2022/01/19 08:20:50;;;;;;;16.77;11.07;;;5.20;99.90;;;;;;4160037;28;20029;-64
2022/01/19 08:22:51;;;;;;;17.45;12.18;;;5.20;99.90;;;;;;4158569;28;20488;-64
2022/01/19 08:24:51;;;;;;;19.15;12.05;;;5.20;99.90;;;;;;4160974;28;20057;-64
2022/01/19 08:26:54;;;;;;;17.63;13.10;;;5.20;99.90;;;;;;4156440;28;20121;-65
2022/01/19 08:28:55;;;;;;;16.27;11.88;;;5.20;99.90;;;;;;4158742;28;20053;-64
2022/01/19 08:30:55;;;;;;;17.23;11.80;;;5.30;99.90;;;;;;4157551;28;20030;-64
2022/01/19 08:32:56;;;;;;;18.95;11.93;;;5.30;99.90;;;;;;4159950;28;20083;-64
2022/01/19 08:34:56;;;;;;;19.38;12.63;;;5.40;99.90;;;;;;4161445;28;20477;-64
2022/01/19 08:36:58;;;;;;;18.98;12.95;;;5.40;99.90;;;;;;4160263;28;20041;-65
2022/01/19 08:38:59;;;;;;;17.30;11.63;;;5.40;99.90;;;;;;4159018;28;20029;-65
2022/01/19 08:40:59;;;;;;;18.27;12.85;;;5.40;99.90;;;;;;4159416;28;20061;-65
2022/01/19 08:43:00;;;;;;;17.17;12.18;;;5.40;99.90;;;;;;4158749;28;20053;-64
2022/01/19 08:45:07;;;;;;;18.08;12.32;;;5.40;99.90;;;;;;4159991;28;20464;-64
2022/01/19 08:47:07;;;;;;;16.95;12.32;;;5.40;99.90;;;;;;4161163;28;20459;-64
2022/01/19 08:49:08;;;;;;;17.58;11.63;;;5.40;99.90;;;;;;4160465;28;20057;-65
2022/01/19 08:51:09;;;;;;;17.77;12.85;;;5.40;99.90;;;;;;4160039;28;20042;-64
2022/01/19 08:53:10;;;;;;;18.52;12.65;;;5.40;99.90;;;;;;4160056;28;20045;-64
2022/01/19 08:55:11;;;;;;;19.52;12.80;;;5.40;99.90;;;;;;4160814;28;20480;-65
2022/01/19 08:57:11;;;;;;;17.67;12.18;;;5.40;99.90;;;;;;4162264;28;20041;-64
2022/01/19 08:59:12;;;;;;;16.20;11.27;;;5.30;99.90;;;;;;4161293;28;20509;-65
2022/01/19 09:01:13;;;;;;;19.33;12.90;;;5.40;99.90;;;;;;4160328;28;20041;-64
2022/01/19 09:03:15;;;;;;;16.77;12.00;;;5.40;99.90;;;;;;4160226;28;20049;-64
2022/01/19 09:05:17;;;;;;;15.48;11.27;;;5.40;99.90;;;;;;4159905;28;20053;-65
2022/01/19 09:07:19;;;;;;;16.83;12.35;;;5.40;99.90;;;;;;4161495;28;20045;-65
2022/01/19 09:09:20;;;;;;;16.00;11.27;;;5.40;99.90;;;;;;4159766;28;20045;-64
2022/01/19 09:11:20;;;;;;;15.75;11.68;;;5.40;99.90;;;;;;4158153;28;20059;-66
2022/01/19 09:13:21;;;;;;;19.98;12.38;;;5.50;99.90;;;;;;4159110;28;20061;-64
2022/01/19 09:15:23;;;;;;;17.55;11.60;;;5.40;99.90;;;;;;4160257;28;20103;-64
2022/01/19 09:17:23;;;;;;;17.52;12.40;;;5.50;99.90;;;;;;4159404;28;20105;-65
2022/01/19 09:19:24;;;;;;;16.52;12.20;;;5.40;99.90;;;;;;4160130;28;20384;-65
2022/01/19 09:21:25;;;;;;;20.17;13.55;;;5.40;99.90;;;;;;4157948;28;20069;-65
2022/01/19 09:23:25;;;;;;;22.65;13.10;;;5.40;99.90;;;;;;4156540;28;20088;-64
2022/01/19 09:25:26;;;;;;;18.40;11.95;;;5.40;99.90;;;;;;4157262;28;20087;-64
2022/01/19 09:27:27;;;;;;;17.13;11.75;;;5.40;99.90;;;;;;4159025;28;20033;-64
2022/01/19 09:29:27;;;;;;;17.98;11.93;;;5.40;99.90;;;;;;4160355;28;20156;-65
2022/01/19 09:31:28;;;;;;;17.13;11.25;;;5.40;99.90;;;;;;4159147;28;20037;-64
2022/01/19 09:33:30;;;;;;;16.27;11.50;;;5.40;99.90;;;;;;4160627;28;20034;-65
2022/01/19 09:35:39;;;;;;;16.13;11.23;;;5.50;99.90;;;;;;4160111;28;20120;-64
2022/01/19 09:37:40;;;;;;;17.55;12.40;;;5.50;99.90;;;;;;4161177;28;20044;-64
2022/01/19 09:39:41;;;;;;;17.67;12.25;;;5.50;99.90;;;;;;4160172;28;20049;-64
2022/01/19 09:41:41;;;;;;;17.10;12.18;;;5.50;99.90;;;;;;4160109;28;20384;-64
2022/01/19 09:43:42;;;;;;;18.83;12.35;;;5.50;99.90;;;;;;4159701;28;20085;-65
2022/01/19 09:45:43;;;;;;;17.52;11.77;;;5.50;99.90;;;;;;4159503;28;20039;-64
2022/01/19 09:47:46;;;;;;;18.10;12.25;;;5.50;99.90;;;;;;4160849;28;20144;-64
2022/01/19 09:49:46;;;;;;;21.20;13.65;;;5.50;99.90;;;;;;4159238;28;20049;-64
2022/01/19 09:51:50;;;;;;;19.00;12.90;;;5.40;99.90;;;;;;4159979;28;20065;-64
2022/01/19 09:53:51;;;;;;;18.63;12.50;;;5.50;99.90;;;;;;4158960;28;20492;-64
2022/01/19 09:55:52;;;;;;;21.13;13.52;;;5.50;99.90;;;;;;4158478;28;20112;-64
2022/01/19 09:57:52;;;;;;;18.13;12.32;;;5.50;99.90;;;;;;4160343;28;20049;-65
2022/01/19 09:59:53;;;;;;;20.08;13.27;;;5.50;99.90;;;;;;4150894;28;20488;-66
2022/01/19 10:01:59;;;;;;;18.75;12.57;;;5.50;99.90;;;;;;4159036;28;20033;-65
2022/01/19 10:04:21;;;;;;;18.98;12.73;;;5.50;99.90;;;;;;4160646;28;20057;-65
2022/01/19 10:06:23;;;;;;;17.48;12.43;;;5.50;99.90;;;;;;4158642;28;20083;-64
2022/01/19 10:08:35;;;;;;;16.38;11.63;;;5.50;99.90;;;;;;4143987;28;20054;-64
2022/01/19 10:10:36;;;;;;;20.13;12.30;;;5.60;99.90;;;;;;4142221;28;20034;-64
2022/01/19 10:17:17;;;;;;;18.35;12.65;;;5.60;99.90;;;;;;4158414;28;20050;-64
2022/01/19 10:19:23;;;;;;;17.55;12.60;;;5.60;99.90;;;;;;4160010;28;20052;-64
2022/01/19 10:21:23;;;;;;;19.30;13.07;;;5.60;99.90;;;;;;4156692;28;20070;-66
2022/01/19 10:23:40;;;;;;;29.58;18.23;;;5.60;99.90;;;;;;4158613;28;20049;-65
2022/01/19 10:25:49;;;;;;;22.52;13.73;;;5.60;99.90;;;;;;4157752;28;20140;-64
2022/01/19 10:27:50;;;;;;;18.85;12.55;;;5.70;99.90;;;;;;4157242;28;20038;-64
2022/01/19 10:30:10;;;;;;;21.10;13.63;;;5.60;99.90;;;;;;4159117;28;20507;-64
2022/01/19 10:32:10;;;;;;;20.17;13.43;;;5.60;99.90;;;;;;4157325;28;20044;-64
2022/01/19 10:34:20;;;;;;;17.65;12.63;;;5.60;99.90;;;;;;4159340;28;20044;-64
2022/01/19 10:36:46;;;;;;;21.08;13.38;;;5.60;99.90;;;;;;4158402;28;20034;-64
2022/01/19 10:38:56;;;;;;;18.10;12.63;;;5.70;99.90;;;;;;4159277;28;20070;-64
2022/01/19 10:41:02;;;;;;;20.92;12.90;;;5.60;99.90;;;;;;4156810;28;20120;-64
2022/01/19 10:43:41;;;;;;;19.50;13.27;;;5.60;99.90;;;;;;4151908;28;20060;-64
2022/01/19 10:45:42;;;;;;;17.10;12.15;;;5.60;99.90;;;;;;4162912;28;20463;-65
2022/01/19 10:47:45;;;;;;;19.63;13.30;;;5.70;99.90;;;;;;4158909;28;20045;-64
2022/01/19 10:49:52;;;;;;;19.58;13.10;;;5.60;99.90;;;;;;4159782;28;20045;-64
2022/01/19 10:51:58;;;;;;;18.08;13.05;;;5.60;99.90;;;;;;4157616;28;20030;-64
2022/01/19 10:54:11;;;;;;;17.17;12.13;;;5.70;99.90;;;;;;4156380;28;20064;-64
2022/01/19 10:56:29;;;;;;;17.23;12.20;;;5.70;99.90;;;;;;4157899;28;20045;-64
2022/01/19 10:58:30;;;;;;;18.85;13.18;;;5.70;99.90;;;;;;4158797;28;20046;-64
2022/01/19 11:00:40;;;;;;;21.90;13.68;;;5.70;99.90;;;;;;4157714;28;20059;-65
2022/01/19 11:02:43;;;;;;;17.60;12.77;;;5.70;99.90;;;;;;4158884;28;20449;-64
2022/01/19 11:04:45;;;;;;;21.85;13.68;;;5.70;99.90;;;;;;4159509;28;20053;-64
2022/01/19 11:06:47;;;;;;;18.33;12.68;;;5.70;99.90;;;;;;4160486;28;20044;-64
2022/01/19 11:08:50;;;;;;;18.55;12.18;;;5.70;99.90;;;;;;4163214;28;20116;-64
2022/01/19 11:10:53;;;;;;;21.30;13.10;;;5.70;99.90;;;;;;4162521;28;20037;-64
2022/01/19 11:12:56;;;;;;;18.23;11.88;;;5.70;99.90;;;;;;4163364;28;20116;-64
2022/01/19 11:14:56;;;;;;;;;;;5.70;99.90;;;;;;4163194;28;20064;-65
2022/01/19 11:16:57;;;;;;;18.08;12.27;;;5.80;99.90;;;;;;4161739;28;19909;-65
2022/01/19 11:18:57;;;;;;;19.45;12.30;;;5.80;99.90;;;;;;4161652;28;20041;-64
2022/01/19 11:21:06;;;;;;;20.35;13.35;;;5.70;99.90;;;;;;4162693;28;20038;-65
2022/01/19 11:23:26;;;;;;;20.00;13.50;;;5.80;99.90;;;;;;4162193;28;20404;-65
2022/01/19 11:25:51;;;;;;;17.40;11.98;;;5.70;99.90;;;;;;4160664;28;20046;-65
2022/01/19 11:27:52;;;;;;;18.55;12.02;;;5.80;99.90;;;;;;4160961;28;20052;-64
2022/01/19 11:30:17;;;;;;;21.23;13.90;;;5.70;99.90;;;;;;4161408;28;20160;-64
2022/01/19 11:32:19;;;;;;;18.63;11.90;;;5.70;99.90;;;;;;4161659;28;20042;-65
2022/01/19 11:34:43;;;;;;;19.80;13.48;;;5.80;99.90;;;;;;4162536;28;20554;-64
2022/01/19 11:36:43;;;;;;;19.98;13.38;;;5.80;99.90;;;;;;4161358;28;20476;-64
2022/01/19 11:38:50;;;;;;;21.92;13.80;;;5.70;99.90;;;;;;4161775;28;20097;-64
2022/01/19 11:40:50;;;;;;;19.05;13.07;;;5.80;99.90;;;;;;4161218;28;20072;-64
2022/01/19 11:43:16;;;;;;;19.60;13.45;;;5.80;99.90;;;;;;4162142;28;20045;-64
2022/01/19 11:45:38;;;;;;;18.77;13.68;;;5.80;99.90;;;;;;4161964;28;20052;-64
2022/01/19 11:47:43;;;;;;;20.80;13.90;;;5.80;99.90;;;;;;4160211;28;20464;-64
2022/01/19 11:49:58;;;;;;;19.00;13.20;;;5.80;99.90;;;;;;4161851;28;20076;-64